Time;durP1;ratioP1;P1;durP2;ratioP2;P2;SDS_P1;SDS_P2;PMS_P1;PMS_P2;Temp;Humidity;BMP_temperature;BMP_pressure;BME280_temperature;BME280_humidity;BME280_pressure;Samples;Min_cycle;Max_cycle;Signal;HPM_P1;HPM_P2
2021/03/25 00:00:49;;;;;;;6.22;3.40;;;;;;;3.25;75.43;99767.81;2016142;77;21409;-77
2021/03/25 00:03:52;;;;;;;5.61;3.40;;;;;;;3.22;75.35;99760.00;2017205;80;20350;-77
2021/03/25 00:06:57;;;;;;;4.78;3.26;;;;;;;3.20;75.09;99759.09;2017694;80;20313;-75
2021/03/25 00:09:59;;;;;;;4.68;3.34;;;;;;;3.21;75.04;99759.97;2016928;80;20418;-76
2021/03/25 00:13:04;;;;;;;4.50;3.38;;;;;;;3.20;74.90;99758.22;2016962;80;20348;-76
2021/03/25 00:16:06;;;;;;;5.90;3.38;;;;;;;3.16;75.05;99751.25;2015999;77;21493;-76
2021/03/25 00:19:08;;;;;;;6.16;3.69;;;;;;;3.14;75.18;99758.03;2016979;80;20327;-76
2021/03/25 00:22:11;;;;;;;3.36;2.92;;;;;;;3.10;75.45;99748.50;2017388;80;20309;-76
2021/03/25 00:25:16;;;;;;;5.43;3.75;;;;;;;3.06;75.82;99746.69;2016731;80;20353;-77
2021/03/25 00:28:18;;;;;;;4.76;2.72;;;;;;;3.01;75.98;99746.53;2017521;80;21047;-76
2021/03/25 00:31:20;;;;;;;8.80;3.50;;;;;;;2.97;75.98;99740.44;2016550;77;20712;-76
2021/03/25 00:34:22;;;;;;;7.46;3.31;;;;;;;2.95;76.12;99741.22;2056153;70;20376;-66
2021/03/25 00:37:24;;;;;;;4.57;2.94;;;;;;;2.93;76.12;99738.59;2006376;80;20343;-66
2021/03/25 00:40:26;;;;;;;5.85;3.34;;;;;;;2.91;76.17;99742.81;2007001;80;21065;-66
2021/03/25 00:43:27;;;;;;;6.50;3.69;;;;;;;2.86;76.26;99738.34;2006905;80;20367;-66
2021/03/25 00:46:29;;;;;;;6.28;3.60;;;;;;;2.80;76.41;99733.91;2005944;78;21123;-66
2021/03/25 00:49:33;;;;;;;6.88;4.19;;;;;;;2.79;76.40;99732.16;2006730;80;20331;-66
2021/03/25 00:52:36;;;;;;;6.15;4.19;;;;;;;2.73;76.43;99730.28;2006921;80;20781;-66
2021/03/25 00:55:38;;;;;;;6.49;4.31;;;;;;;2.73;76.58;99729.41;2006253;80;20844;-66
2021/03/25 00:58:39;;;;;;;6.22;4.16;;;;;;;2.75;76.61;99732.00;2009475;80;20349;-66
2021/03/25 01:01:43;;;;;;;4.39;3.49;;;;;;;2.69;76.77;99727.53;2006058;77;20838;-66
2021/03/25 01:04:45;;;;;;;7.24;4.06;;;;;;;2.70;76.65;99730.19;2005672;80;20315;-67
2021/03/25 01:07:46;;;;;;;6.63;3.88;;;;;;;2.68;76.68;99730.94;2006398;80;20323;-67
2021/03/25 01:10:51;;;;;;;6.53;4.36;;;;;;;2.63;76.77;99730.78;2006641;80;20353;-66
2021/03/25 01:14:00;;;;;;;6.75;4.44;;;;;;;2.56;76.97;99726.28;2006142;80;20529;-66
2021/03/25 01:17:05;;;;;;;6.44;4.81;;;;;;;2.54;77.13;99729.63;2005522;77;21254;-66
2021/03/25 01:20:14;;;;;;;7.66;4.91;;;;;;;2.53;77.07;99727.91;2007042;80;20181;-66
2021/03/25 01:23:16;;;;;;;5.60;4.82;;;;;;;2.52;77.11;99728.72;2006523;80;20345;-66
2021/03/25 01:26:18;;;;;;;6.13;4.45;;;;;;;2.48;77.22;99727.72;2006182;80;20177;-66
2021/03/25 01:29:20;;;;;;;6.65;4.21;;;;;;;2.45;77.35;99725.06;2006722;80;20315;-66
2021/03/25 01:32:22;;;;;;;5.88;4.22;;;;;;;2.40;77.52;99721.47;2006032;77;20435;-66
2021/03/25 01:35:24;;;;;;;6.86;3.56;;;;;;;2.36;77.86;99719.66;2015139;80;20439;-66
2021/03/25 01:38:27;;;;;;;9.23;4.25;;;;;;;2.29;77.87;99710.84;2016103;80;20313;-66
2021/03/25 01:41:33;;;;;;;6.39;4.43;;;;;;;2.24;77.77;99709.84;2016808;80;20986;-66
2021/03/25 01:44:39;;;;;;;7.29;4.94;;;;;;;2.23;77.70;99704.66;2016638;80;20851;-66
2021/03/25 01:47:41;;;;;;;6.68;4.34;;;;;;;2.22;77.67;99696.13;2011182;77;21246;-66
2021/03/25 01:50:43;;;;;;;8.41;5.29;;;;;;;2.23;78.08;99697.00;2011632;80;20318;-66
2021/03/25 01:53:47;;;;;;;9.46;4.36;;;;;;;2.23;78.35;99689.31;2010398;80;20383;-66
2021/03/25 01:57:13;;;;;;;6.26;4.19;;;;;;;2.22;78.54;99690.13;2011190;80;20314;-66
2021/03/25 02:00:27;;;;;;;6.03;4.03;;;;;;;2.18;78.44;99694.28;2010681;77;20326;-67
2021/03/25 02:03:43;;;;;;;7.55;4.00;;;;;;;2.12;78.57;99686.38;2016042;80;20335;-66
2021/03/25 02:07:21;;;;;;;7.63;4.06;;;;;;;2.04;78.57;99686.13;2016498;80;21018;-66
2021/03/25 02:10:38;;;;;;;6.15;3.96;;;;;;;1.95;78.54;99682.34;2016032;80;20337;-66
2021/03/25 02:13:58;;;;;;;7.75;4.64;;;;;;;1.92;78.29;99679.69;2016219;80;20321;-66
2021/03/25 02:17:11;;;;;;;7.07;4.79;;;;;;;1.88;78.41;99675.28;2012427;78;20356;-67
2021/03/25 02:20:40;;;;;;;6.76;4.26;;;;;;;1.90;78.37;99674.53;2011699;80;20361;-66
2021/03/25 02:23:48;;;;;;;8.29;4.68;;;;;;;1.91;78.30;99670.28;2011208;80;20361;-66
2021/03/25 02:27:07;;;;;;;8.46;3.89;;;;;;;1.89;78.21;99679.59;2011611;80;20192;-66
2021/03/25 02:30:13;;;;;;;7.25;4.06;;;;;;;1.86;78.37;99667.56;2011309;80;20302;-67
2021/03/25 02:33:20;;;;;;;6.72;4.31;;;;;;;1.86;78.56;99677.81;2018403;80;20333;-66
2021/03/25 02:36:46;;;;;;;5.66;4.07;;;;;;;1.87;78.61;99674.44;2016144;80;20705;-66
2021/03/25 02:39:56;;;;;;;5.65;4.45;;;;;;;1.83;79.23;99675.16;2016663;80;20325;-66
2021/03/25 02:43:03;;;;;;;5.53;4.09;;;;;;;1.81;79.42;99666.53;2016271;80;20659;-65
2021/03/25 02:46:32;;;;;;;6.99;4.28;;;;;;;1.79;79.18;99676.69;2014265;77;21013;-66
2021/03/25 02:49:44;;;;;;;5.81;4.00;;;;;;;1.77;78.82;99667.22;2011025;80;20448;-66
2021/03/25 02:52:50;;;;;;;6.38;4.26;;;;;;;1.75;78.76;99671.44;2011410;80;20359;-66
2021/03/25 02:55:56;;;;;;;7.00;4.11;;;;;;;1.72;79.29;99674.75;2010965;80;20328;-66
2021/03/25 02:59:16;;;;;;;8.84;4.30;;;;;;;1.69;79.72;99677.22;2010861;80;20330;-66
2021/03/25 03:02:46;;;;;;;7.03;4.21;;;;;;;1.62;80.01;99676.97;2011918;77;22327;-67
2021/03/25 03:05:50;;;;;;;6.97;4.63;;;;;;;1.61;80.18;99691.41;2011670;80;20855;-66
2021/03/25 03:08:53;;;;;;;6.31;4.31;;;;;;;1.57;80.48;99684.44;2013087;80;20338;-66
2021/03/25 03:11:58;;;;;;;5.68;3.96;;;;;;;1.54;80.25;99678.34;2013214;80;20795;-66
2021/03/25 03:15:28;;;;;;;5.71;4.20;;;;;;;1.53;79.96;99685.16;2014110;80;20306;-66
2021/03/25 03:18:31;;;;;;;5.25;3.90;;;;;;;1.53;79.74;99677.47;2007810;80;20349;-66
2021/03/25 03:21:53;;;;;;;6.05;4.05;;;;;;;1.54;80.07;99684.34;2008915;80;20354;-66
2021/03/25 03:24:55;;;;;;;4.71;3.42;;;;;;;1.50;79.90;99678.25;2007912;80;20651;-66
2021/03/25 03:28:02;;;;;;;5.45;3.35;;;;;;;1.49;79.64;99676.50;2008249;80;20319;-67
2021/03/25 03:31:08;;;;;;;5.55;3.70;;;;;;;1.48;79.97;99677.31;2010771;77;20697;-66
2021/03/25 03:34:19;;;;;;;5.94;3.59;;;;;;;1.43;80.20;99681.38;2019300;80;20366;-67
2021/03/25 03:37:33;;;;;;;4.44;3.42;;;;;;;1.42;80.21;99674.53;2019037;80;20331;-66
2021/03/25 03:40:40;;;;;;;4.11;3.24;;;;;;;1.41;80.30;99671.91;2019022;80;20841;-66
2021/03/25 03:43:44;;;;;;;4.25;3.67;;;;;;;1.40;79.98;99673.59;2018525;80;20317;-66
2021/03/25 03:46:46;;;;;;;4.36;3.20;;;;;;;1.37;79.58;99672.63;2013852;77;21193;-66
2021/03/25 03:49:55;;;;;;;4.47;3.40;;;;;;;1.34;79.30;99680.19;2013295;80;20329;-66
2021/03/25 03:52:57;;;;;;;3.71;3.04;;;;;;;1.27;79.11;99673.13;2012828;80;20306;-66
2021/03/25 03:56:21;;;;;;;4.19;3.79;;;;;;;1.19;79.16;99670.25;2013022;80;20168;-66
2021/03/25 03:59:47;;;;;;;3.83;3.40;;;;;;;1.15;79.31;99668.41;2013182;80;20337;-66
2021/03/25 04:03:01;;;;;;;4.66;3.24;;;;;;;1.15;79.67;99663.28;2016674;77;20317;-67
2021/03/25 04:06:10;;;;;;;4.36;3.19;;;;;;;1.11;80.08;99664.88;2017433;80;20464;-66
2021/03/25 04:09:18;;;;;;;;;;;;;;;1.06;79.93;99666.38;2017730;80;20338;-66
2021/03/25 04:12:30;;;;;;;3.85;2.85;;;;;;;1.05;79.81;99667.19;2016893;80;20097;-66
2021/03/25 04:15:34;;;;;;;3.83;3.09;;;;;;;1.02;79.61;99672.19;2015594;77;21169;-66
2021/03/25 04:18:44;;;;;;;4.51;3.26;;;;;;;0.99;79.58;99671.19;2012358;80;20346;-76
2021/03/25 04:21:54;;;;;;;4.75;3.45;;;;;;;0.99;79.47;99671.19;2012225;80;21132;-76
2021/03/25 04:25:07;;;;;;;5.50;3.42;;;;;;;0.97;79.50;99668.59;2012265;80;20363;-76
2021/03/25 04:28:17;;;;;;;7.20;3.70;;;;;;;0.94;79.54;99665.06;2004749;80;20426;-76
2021/03/25 04:31:18;;;;;;;;;;;;;;;0.91;79.80;99660.69;2013206;77;20818;-76
2021/03/25 04:34:20;;;;;;;6.76;3.09;;;;;;;0.92;79.91;99672.66;2016159;80;20072;-76
2021/03/25 04:37:24;;;;;;;6.71;3.94;;;;;;;0.87;79.95;99669.91;2016199;80;20179;-76
2021/03/25 04:40:34;;;;;;;9.04;4.72;;;;;;;0.87;79.89;99672.47;2016684;80;20780;-76
2021/03/25 04:43:36;;;;;;;6.03;4.30;;;;;;;0.88;79.83;99673.34;2016642;80;21119;-76
2021/03/25 04:46:58;;;;;;;9.88;4.78;;;;;;;0.89;79.98;99669.97;2013859;77;23572;-76
2021/03/25 04:50:04;;;;;;;8.20;4.81;;;;;;;0.90;80.55;99669.19;2012638;80;20310;-77
2021/03/25 04:53:19;;;;;;;5.90;4.47;;;;;;;0.88;81.02;99671.66;2011997;80;20395;-76
2021/03/25 04:56:23;;;;;;;6.30;4.34;;;;;;;0.87;80.95;99675.03;2011607;80;20323;-76
2021/03/25 04:59:24;;;;;;;6.20;3.99;;;;;;;0.85;81.08;99666.44;2011621;80;20355;-76
2021/03/25 05:02:29;;;;;;;7.28;4.30;;;;;;;0.82;81.18;99668.88;2014704;77;20559;-77
2021/03/25 05:05:33;;;;;;;6.85;4.81;;;;;;;0.82;81.14;99668.88;2016309;80;20320;-76
2021/03/25 05:08:34;;;;;;;9.26;5.09;;;;;;;0.83;81.05;99669.75;2016881;80;20417;-76
2021/03/25 05:11:39;;;;;;;7.60;4.26;;;;;;;0.82;80.96;99673.97;2017177;80;20342;-77
2021/03/25 05:14:43;;;;;;;7.93;4.80;;;;;;;0.85;80.95;99674.09;2020643;80;20317;-76
2021/03/25 05:18:10;;;;;;;10.51;5.07;;;;;;;0.86;80.84;99680.94;2011090;78;24549;-76
2021/03/25 05:21:20;;;;;;;8.99;4.96;;;;;;;0.86;80.71;99683.50;2011583;80;20310;-76
2021/03/25 05:24:30;;;;;;;6.45;4.86;;;;;;;0.84;80.53;99686.81;2010874;80;20326;-76
2021/03/25 05:27:39;;;;;;;7.11;4.68;;;;;;;0.83;80.58;99688.50;2012556;80;20326;-77
2021/03/25 05:30:44;;;;;;;5.89;4.51;;;;;;;0.84;80.55;99692.78;2010552;77;21914;-76
2021/03/25 05:33:50;;;;;;;9.56;4.79;;;;;;;0.87;80.72;99692.03;2011324;80;20193;-76
2021/03/25 05:36:56;;;;;;;9.07;4.38;;;;;;;0.88;80.72;99696.34;2011561;80;20430;-77
2021/03/25 05:40:01;;;;;;;5.59;4.16;;;;;;;0.92;80.67;99693.13;2011617;80;20336;-77
2021/03/25 05:43:34;;;;;;;7.80;4.18;;;;;;;0.96;80.82;99692.41;2011487;80;21095;-76
2021/03/25 05:46:59;;;;;;;7.06;3.80;;;;;;;0.99;80.74;99707.00;2009890;77;20331;-77
2021/03/25 05:50:23;;;;;;;5.56;3.67;;;;;;;1.01;80.76;99716.47;2011559;80;20318;-77
2021/03/25 05:54:03;;;;;;;8.85;3.60;;;;;;;1.05;80.62;99715.75;2011013;80;20349;-76
2021/03/25 05:57:07;;;;;;;5.09;3.63;;;;;;;1.05;80.83;99725.13;2009458;80;20332;-78
2021/03/25 06:00:35;;;;;;;6.28;3.84;;;;;;;1.05;81.08;99725.97;2011275;80;20331;-77
2021/03/25 06:03:41;;;;;;;6.01;3.72;;;;;;;1.03;81.56;99721.63;2009005;80;20879;-77
2021/03/25 06:07:16;;;;;;;5.13;3.74;;;;;;;1.10;81.93;99723.63;2011650;80;20422;-76
2021/03/25 06:10:33;;;;;;;4.84;3.81;;;;;;;1.16;82.18;99724.72;2011211;80;20902;-76
2021/03/25 06:13:59;;;;;;;6.57;4.06;;;;;;;1.19;82.18;99732.50;2011654;80;20311;-76
2021/03/25 06:17:19;;;;;;;4.95;3.58;;;;;;;1.27;82.40;99742.19;2008858;80;20806;-76
2021/03/25 06:20:26;;;;;;;6.15;3.53;;;;;;;1.35;82.39;99740.75;2012120;80;20385;-76
2021/03/25 06:23:41;;;;;;;9.45;4.19;;;;;;;1.35;82.20;99744.19;2008534;80;20340;-77
2021/03/25 06:26:55;;;;;;;7.03;4.07;;;;;;;1.33;82.20;99745.81;2010184;80;20415;-77
2021/03/25 06:30:09;;;;;;;7.85;4.04;;;;;;;1.36;82.36;99747.63;2009228;80;20326;-75
2021/03/25 06:33:24;;;;;;;6.43;4.51;;;;;;;1.41;82.54;99754.66;2009177;80;20343;-75
2021/03/25 06:37:10;;;;;;;10.46;4.84;;;;;;;1.56;82.30;99759.47;2008859;80;20314;-75
2021/03/25 06:40:22;;;;;;;8.74;4.95;;;;;;;1.72;81.97;99754.09;2006292;80;20917;-75
2021/03/25 06:43:27;;;;;;;9.00;4.57;;;;;;;1.92;81.22;99757.38;2008493;80;20346;-74
2021/03/25 06:46:37;;;;;;;8.76;4.30;;;;;;;2.05;81.16;99763.81;2009024;80;20314;-75
2021/03/25 06:49:50;;;;;;;6.13;4.38;;;;;;;2.24;81.06;99762.78;2009761;80;20361;-75
2021/03/25 06:52:57;;;;;;;7.91;4.68;;;;;;;2.41;80.96;99766.78;2013620;80;20305;-74
2021/03/25 06:56:08;;;;;;;8.65;4.74;;;;;;;2.60;80.40;99775.97;2010314;80;20341;-74
2021/03/25 07:02:37;;;;;;;6.75;4.40;;;;;;;2.85;80.09;99773.38;2035781;69;20446;-73
2021/03/25 07:05:39;;;;;;;8.86;5.63;;;;;;;3.10;79.64;99780.16;2015039;80;20799;-74
2021/03/25 07:08:41;;;;;;;7.40;5.06;;;;;;;3.34;79.44;99769.78;2015618;80;20345;-75
2021/03/25 07:11:43;;;;;;;7.85;5.56;;;;;;;3.61;78.97;99770.63;2018646;80;20317;-74
2021/03/25 07:14:46;;;;;;;6.88;5.28;;;;;;;3.96;78.22;99775.91;2014946;80;20345;-75
2021/03/25 07:17:51;;;;;;;7.95;5.71;;;;;;;4.23;77.37;99781.78;2014822;80;20332;-74
2021/03/25 07:21:20;;;;;;;8.04;5.40;;;;;;;4.45;76.76;99782.34;2015464;80;20681;-76
2021/03/25 07:24:28;;;;;;;8.70;5.10;;;;;;;4.62;76.16;99781.09;2014778;80;20328;-75
2021/03/25 07:27:34;;;;;;;7.75;5.06;;;;;;;4.81;75.93;99783.28;2017327;80;20168;-79
2021/03/25 07:30:44;;;;;;;7.53;4.89;;;;;;;5.06;75.39;99782.19;2016099;80;20395;-75
2021/03/25 07:33:45;;;;;;;7.06;4.74;;;;;;;5.33;74.60;99781.09;2015457;80;20360;-78
2021/03/25 07:36:51;;;;;;;8.04;4.74;;;;;;;5.60;74.04;99781.72;2015066;80;20443;-76
2021/03/25 07:40:00;;;;;;;10.39;5.63;;;;;;;5.89;73.22;99781.44;2015602;80;20750;-74
2021/03/25 07:43:46;;;;;;;10.63;5.30;;;;;;;6.12;72.38;99787.97;2015263;80;20338;-74
2021/03/25 07:46:51;;;;;;;7.66;4.97;;;;;;;6.33;71.62;99790.97;2013048;80;21021;-77
2021/03/25 07:49:53;;;;;;;8.61;5.68;;;;;;;6.55;70.94;99794.81;2015036;80;20817;-74
2021/03/25 07:52:55;;;;;;;6.93;5.18;;;;;;;6.79;70.18;99796.06;2014662;80;21217;-74
2021/03/25 07:56:10;;;;;;;10.90;5.84;;;;;;;7.09;69.61;99796.59;2014039;80;20866;-73
2021/03/25 07:59:27;;;;;;;8.76;5.40;;;;;;;7.43;68.61;99803.13;2014468;80;20828;-77
2021/03/25 08:02:41;;;;;;;7.54;5.60;;;;;;;7.72;66.95;99800.97;2015175;80;20556;-76
2021/03/25 08:05:46;;;;;;;11.77;6.04;;;;;;;8.03;66.39;99802.22;2020509;80;20313;-75
2021/03/25 08:08:59;;;;;;;9.66;6.03;;;;;;;8.32;65.43;99799.13;2016409;80;20217;-74
2021/03/25 08:12:02;;;;;;;10.04;5.94;;;;;;;8.60;64.79;99806.34;2015336;80;20983;-75
2021/03/25 08:15:07;;;;;;;11.06;6.94;;;;;;;8.99;64.69;99810.19;2021993;80;20344;-79
2021/03/25 08:18:20;;;;;;;11.86;7.13;;;;;;;9.25;63.50;99808.66;2026323;80;20841;-71
2021/03/25 08:21:28;;;;;;;9.70;6.41;;;;;;;9.51;62.70;99808.81;2013951;80;20179;-80
2021/03/25 08:25:03;;;;;;;12.07;7.26;;;;;;;9.89;62.25;99808.22;2018716;80;20180;-79
2021/03/25 08:28:37;;;;;;;14.35;8.84;;;;;;;10.32;61.26;99813.59;2014578;80;20289;-77
2021/03/25 08:32:17;;;;;;;15.24;8.98;;;;;;;10.71;59.62;99812.84;2014249;80;20196;-78
2021/03/25 08:35:53;;;;;;;16.15;9.15;;;;;;;11.12;58.49;99824.13;2009945;80;20180;-78
2021/03/25 08:39:20;;;;;;;16.77;10.29;;;;;;;11.59;58.48;99827.56;2015678;80;20212;-78
2021/03/25 08:42:39;;;;;;;16.30;11.05;;;;;;;11.85;56.57;99820.63;2010744;80;20189;-76
2021/03/25 08:45:50;;;;;;;;;;;;;;;12.01;56.23;99816.22;2014460;80;20219;-77
2021/03/25 08:48:59;;;;;;;20.55;11.82;;;;;;;12.20;57.08;99824.81;2014983;80;20101;-75
2021/03/25 08:52:06;;;;;;;18.63;11.13;;;;;;;12.61;56.25;99820.31;2014717;80;20318;-76
2021/03/25 08:55:27;;;;;;;19.79;12.01;;;;;;;12.84;53.81;99824.50;2014310;80;20209;-76
2021/03/25 08:58:36;;;;;;;16.99;11.96;;;;;;;12.90;52.06;99824.44;2015239;80;20187;-76
2021/03/25 09:01:56;;;;;;;18.99;12.61;;;;;;;12.91;52.91;99828.78;2015980;80;20163;-76
2021/03/25 09:05:24;;;;;;;22.05;11.91;;;;;;;13.08;53.00;99828.66;2013967;80;20196;-75
2021/03/25 09:08:28;;;;;;;20.04;12.59;;;;;;;13.24;53.17;99839.00;2014856;80;20881;-76
2021/03/25 09:11:29;;;;;;;20.73;13.32;;;;;;;13.30;53.26;99828.53;2014999;80;20205;-76
2021/03/25 09:14:31;;;;;;;25.36;15.13;;;;;;;13.37;52.32;99834.56;2014472;80;20171;-76
2021/03/25 09:18:07;;;;;;;24.39;15.84;;;;;;;13.35;52.32;99833.69;2015689;80;20180;-76
2021/03/25 09:21:18;;;;;;;24.94;15.52;;;;;;;13.30;53.14;99841.56;2015708;80;21112;-75
2021/03/25 09:24:19;;;;;;;25.99;16.76;;;;;;;13.37;53.27;99838.91;2015393;80;20180;-76
2021/03/25 09:28:02;;;;;;;26.35;18.77;;;;;;;13.43;52.73;99831.00;2015550;80;20205;-76
2021/03/25 09:31:18;;;;;;;26.00;17.16;;;;;;;13.50;52.61;99830.09;2015593;80;20193;-75
2021/03/25 09:34:23;;;;;;;28.05;18.01;;;;;;;13.49;53.04;99831.84;2015677;80;20673;-76
2021/03/25 09:37:28;;;;;;;27.25;17.65;;;;;;;13.53;52.93;99832.69;2015281;80;20172;-76
2021/03/25 09:40:43;;;;;;;25.40;17.52;;;;;;;13.70;53.47;99833.38;2014573;80;20180;-76
2021/03/25 09:43:45;;;;;;;28.69;18.58;;;;;;;14.15;53.43;99836.34;2014271;80;20206;-77
2021/03/25 09:46:59;;;;;;;27.51;19.01;;;;;;;14.26;50.82;99837.09;2015889;80;20241;-76
2021/03/25 09:50:00;;;;;;;27.30;17.27;;;;;;;14.05;50.49;99833.00;2015668;80;20797;-77
2021/03/25 09:53:07;;;;;;;27.60;17.40;;;;;;;14.01;51.65;99831.31;2015478;80;20171;-77
2021/03/25 09:56:18;;;;;;;25.81;16.86;;;;;;;14.25;51.41;99835.38;2015622;80;20300;-77
2021/03/25 09:59:50;;;;;;;24.15;15.75;;;;;;;14.42;50.37;99830.81;2015847;80;20365;-76
2021/03/25 10:03:01;;;;;;;24.77;16.17;;;;;;;14.54;51.43;99839.38;2016093;80;20197;-76
2021/03/25 10:06:03;;;;;;;26.77;16.75;;;;;;;14.67;50.01;99835.72;2015975;80;20325;-77
2021/03/25 10:09:04;;;;;;;25.44;16.48;;;;;;;14.77;48.86;99845.19;2015148;80;20783;-76
2021/03/25 10:12:10;;;;;;;24.42;16.99;;;;;;;14.85;48.98;99840.69;2021565;80;20179;-80
2021/03/25 10:15:27;;;;;;;25.29;18.70;;;;;;;14.93;48.39;99849.31;2017628;80;20318;-77
2021/03/25 10:18:32;;;;;;;25.09;15.50;;;;;;;14.94;47.73;99835.34;2015808;80;20512;-77
2021/03/25 10:21:43;;;;;;;25.19;16.13;;;;;;;15.02;48.33;99832.59;2016920;80;20558;-78
2021/03/25 10:24:55;;;;;;;27.24;16.73;;;;;;;15.20;48.02;99834.91;2016088;80;20208;-78
2021/03/25 10:27:59;;;;;;;25.05;15.79;;;;;;;15.18;47.33;99831.47;2016525;80;20189;-79
2021/03/25 10:31:23;;;;;;;22.73;14.96;;;;;;;15.09;47.14;99823.78;2016389;80;20191;-77
2021/03/25 10:34:41;;;;;;;21.91;14.40;;;;;;;14.91;47.71;99822.31;2013431;80;20195;-77
2021/03/25 10:37:54;;;;;;;19.46;13.02;;;;;;;14.96;47.78;99828.34;2014982;80;20211;-77
2021/03/25 10:41:02;;;;;;;19.38;13.00;;;;;;;15.14;47.68;99827.19;2016128;80;20217;-76
2021/03/25 10:44:18;;;;;;;20.06;12.30;;;;;;;15.40;46.97;99821.50;2015351;80;20217;-79
2021/03/25 10:47:31;;;;;;;20.40;13.49;;;;;;;15.35;46.29;99808.50;2018383;80;20810;-79
2021/03/25 10:50:37;;;;;;;20.85;12.81;;;;;;;15.28;46.10;99817.38;2021144;80;20209;-77
2021/03/25 10:53:52;;;;;;;17.01;9.94;;;;;;;15.03;45.83;99819.50;2016644;80;20199;-80
2021/03/25 10:56:58;;;;;;;18.63;10.76;;;;;;;14.95;47.49;99807.44;2017613;80;20191;-77
2021/03/25 11:00:31;;;;;;;20.90;11.68;;;;;;;15.15;47.43;99813.22;2015558;80;20188;-78
2021/03/25 11:03:40;;;;;;;18.41;11.07;;;;;;;15.21;46.75;99807.88;2015184;80;21064;-78
2021/03/25 11:06:49;;;;;;;16.40;10.91;;;;;;;15.34;47.23;99809.41;2017216;80;20199;-81
2021/03/25 11:09:58;;;;;;;17.44;12.65;;;;;;;15.47;46.25;99803.97;2021453;80;20180;-78
2021/03/25 11:13:17;;;;;;;11.80;7.97;;;;;;;15.60;46.55;99790.63;2017039;80;20203;-76
2021/03/25 11:16:21;;;;;;;12.39;7.09;;;;;;;16.00;44.70;99798.63;2014462;80;21375;-74
2021/03/25 11:19:30;;;;;;;9.86;6.32;;;;;;;16.25;43.22;99790.25;2015473;80;20180;-76
2021/03/25 11:22:33;;;;;;;11.40;7.59;;;;;;;16.55;43.52;99794.84;2015400;80;20164;-77
2021/03/25 11:25:41;;;;;;;15.39;8.41;;;;;;;16.86;43.10;99795.00;2014626;80;20244;-78
2021/03/25 11:28:44;;;;;;;16.75;9.18;;;;;;;16.85;42.09;99798.53;2014718;80;20187;-79
2021/03/25 11:32:10;;;;;;;10.50;7.26;;;;;;;16.93;41.88;99790.50;2014771;80;20213;-76
2021/03/25 11:35:25;;;;;;;14.89;7.80;;;;;;;17.14;41.59;99792.59;2012673;80;20231;-78
2021/03/25 11:38:44;;;;;;;8.39;6.63;;;;;;;17.24;40.21;99781.88;2017255;80;20183;-81
2021/03/25 11:41:48;;;;;;;11.93;8.07;;;;;;;17.30;41.47;99785.22;2019243;80;20876;-80
2021/03/25 11:44:59;;;;;;;11.26;7.84;;;;;;;17.19;39.31;99788.09;2016023;80;20203;-81
2021/03/25 11:48:01;;;;;;;9.46;6.40;;;;;;;17.00;40.77;99786.81;2016556;80;20171;-79
2021/03/25 11:51:15;;;;;;;;;;;;;;;16.95;41.04;99801.81;2015999;80;20179;-76
2021/03/25 11:54:26;;;;;;;8.94;5.49;;;;;;;17.00;41.28;99786.81;2017564;80;20284;-79
2021/03/25 11:57:36;;;;;;;6.06;4.61;;;;;;;17.25;41.40;99789.72;2015321;80;20215;-79
2021/03/25 12:01:01;;;;;;;9.46;5.07;;;;;;;17.55;40.16;99784.56;2015209;80;20306;-76
2021/03/25 12:04:06;;;;;;;9.68;6.19;;;;;;;17.84;40.91;99778.56;2020103;80;20205;-75
2021/03/25 12:07:11;;;;;;;10.93;6.03;;;;;;;18.14;39.41;99782.09;2019972;80;20199;-75
2021/03/25 12:10:15;;;;;;;9.30;5.21;;;;;;;18.45;38.71;99779.41;2021347;80;20167;-75
2021/03/25 12:13:17;;;;;;;7.28;5.39;;;;;;;18.51;38.63;99784.50;2021747;80;20208;-76
2021/03/25 12:16:18;;;;;;;9.01;5.63;;;;;;;18.64;38.54;99780.59;2018611;80;20621;-76
2021/03/25 12:19:21;;;;;;;9.27;5.78;;;;;;;18.88;37.65;99776.34;2026400;80;20668;-75
2021/03/25 12:22:42;;;;;;;7.78;5.16;;;;;;;18.82;36.89;99773.88;2022253;80;20171;-76
2021/03/25 12:25:45;;;;;;;8.27;5.74;;;;;;;18.44;37.36;99770.66;2020375;80;20398;-76
2021/03/25 12:28:46;;;;;;;9.36;5.21;;;;;;;18.00;38.21;99777.22;2021741;80;20171;-76
2021/03/25 12:31:48;;;;;;;10.13;4.55;;;;;;;17.57;39.69;99767.00;2020589;80;20383;-75
2021/03/25 12:35:16;;;;;;;7.05;4.99;;;;;;;17.53;40.40;99774.09;2019643;80;20649;-71
2021/03/25 12:38:18;;;;;;;9.20;5.72;;;;;;;17.47;39.78;99772.50;2020136;80;20174;-71
2021/03/25 12:41:31;;;;;;;10.38;5.60;;;;;;;17.39;39.53;99770.97;2020616;80;20188;-72
2021/03/25 12:44:33;;;;;;;11.96;6.82;;;;;;;17.66;40.06;99775.50;2019566;80;20190;-71
2021/03/25 12:47:37;;;;;;;9.25;6.44;;;;;;;17.77;38.81;99775.22;2019856;80;20206;-71
2021/03/25 12:50:39;;;;;;;9.24;6.18;;;;;;;17.93;39.88;99776.53;2020349;80;20955;-71
2021/03/25 12:53:43;;;;;;;12.96;7.20;;;;;;;18.20;39.29;99782.78;2019662;80;20259;-71
2021/03/25 12:56:46;;;;;;;11.40;6.36;;;;;;;18.19;38.93;99767.91;2020419;80;20183;-71
2021/03/25 12:59:47;;;;;;;8.34;5.20;;;;;;;17.66;38.74;99772.00;2022945;80;20210;-71
2021/03/25 13:02:49;;;;;;;7.76;5.13;;;;;;;17.26;38.54;99785.34;2020117;80;20372;-71
2021/03/25 13:05:51;;;;;;;8.70;5.44;;;;;;;16.93;39.75;99774.75;2019760;80;20681;-71
2021/03/25 13:08:53;;;;;;;8.91;5.34;;;;;;;16.73;39.96;99772.63;2018227;80;20175;-71
2021/03/25 13:12:06;;;;;;;7.82;4.32;;;;;;;16.78;40.45;99775.13;2020419;80;20921;-71
2021/03/25 13:15:08;;;;;;;7.70;4.43;;;;;;;16.59;40.62;99774.66;2019104;80;20267;-71
2021/03/25 13:18:10;;;;;;;6.76;4.60;;;;;;;16.56;40.75;99772.09;2019801;80;20167;-72
2021/03/25 13:21:12;;;;;;;6.11;3.83;;;;;;;16.69;40.83;99770.94;2019901;80;20665;-72
2021/03/25 13:24:13;;;;;;;3.61;2.94;;;;;;;17.08;39.58;99769.16;2019919;80;20248;-72
2021/03/25 13:27:15;;;;;;;4.18;2.24;;;;;;;17.19;39.34;99766.22;2019793;80;20699;-72
2021/03/25 13:30:18;;;;;;;3.69;2.65;;;;;;;17.24;40.29;99768.75;2019807;80;20191;-72
2021/03/25 13:33:20;;;;;;;5.35;2.21;;;;;;;17.22;39.69;99767.00;2020409;80;20183;-70
2021/03/25 13:36:23;;;;;;;4.28;2.49;;;;;;;17.48;39.28;99768.97;2019229;80;20261;-71
2021/03/25 13:39:25;;;;;;;4.91;2.00;;;;;;;17.13;38.23;99761.16;2019130;80;20306;-71
2021/03/25 13:42:26;;;;;;;3.15;1.73;;;;;;;16.70;40.11;99764.81;2021418;80;20667;-71
2021/03/25 13:45:29;;;;;;;4.22;1.79;;;;;;;16.51;39.88;99764.31;2020649;80;20209;-71
2021/03/25 13:48:31;;;;;;;8.56;2.38;;;;;;;16.27;40.37;99762.25;2021216;80;20200;-71
2021/03/25 13:51:34;;;;;;;3.03;1.92;;;;;;;16.18;41.07;99757.22;2021370;80;20167;-71
2021/03/25 13:54:41;;;;;;;5.45;1.77;;;;;;;16.18;41.83;99757.22;2020920;80;20584;-71
2021/03/25 13:57:42;;;;;;;5.24;2.14;;;;;;;16.02;41.10;99762.78;2021499;80;21005;-70
2021/03/25 14:00:46;;;;;;;7.59;2.61;;;;;;;16.20;41.45;99753.66;2021103;80;20197;-71
2021/03/25 14:03:47;;;;;;;7.25;2.30;;;;;;;16.33;39.90;99757.72;2021620;80;20194;-71
2021/03/25 14:06:49;;;;;;;4.91;2.16;;;;;;;16.15;40.28;99768.59;2020886;80;20297;-72
2021/03/25 14:09:51;;;;;;;6.36;2.35;;;;;;;15.93;40.78;99757.72;2021232;80;20713;-72
2021/03/25 14:12:55;;;;;;;5.31;2.21;;;;;;;15.76;41.58;99764.19;2021030;80;20814;-71
2021/03/25 14:15:57;;;;;;;4.11;2.20;;;;;;;15.59;42.52;99765.34;2020733;80;20240;-72
2021/03/25 14:18:59;;;;;;;4.56;2.41;;;;;;;15.51;42.43;99767.25;2021876;80;20864;-71
2021/03/25 14:22:04;;;;;;;4.20;2.06;;;;;;;15.40;41.66;99759.56;2021348;80;20171;-71
2021/03/25 14:25:09;;;;;;;4.60;1.88;;;;;;;15.30;43.24;99763.25;2019408;80;20179;-72
2021/03/25 14:28:13;;;;;;;4.75;1.60;;;;;;;15.25;42.87;99758.97;2019805;80;20316;-72
2021/03/25 14:31:16;;;;;;;3.76;1.59;;;;;;;15.27;42.90;99762.47;2019889;80;20982;-70
2021/03/25 14:34:18;;;;;;;2.79;1.64;;;;;;;15.41;43.10;99773.50;2019865;80;20209;-71
2021/03/25 14:37:20;;;;;;;5.61;1.96;;;;;;;15.53;43.07;99764.59;2019496;80;20560;-71
2021/03/25 14:40:22;;;;;;;6.86;1.90;;;;;;;15.43;42.37;99772.59;2019840;80;20219;-71
2021/03/25 14:43:27;;;;;;;5.01;1.67;;;;;;;15.27;42.80;99776.41;2019107;80;20680;-70
2021/03/25 14:46:29;;;;;;;2.78;1.51;;;;;;;15.17;43.60;99766.97;2019698;80;20196;-70
2021/03/25 14:49:32;;;;;;;4.00;1.69;;;;;;;15.09;42.94;99769.72;2019940;80;20277;-70
2021/03/25 14:52:35;;;;;;;3.45;1.65;;;;;;;14.93;43.46;99767.38;2020407;80;20290;-71
2021/03/25 14:55:37;;;;;;;4.72;2.10;;;;;;;14.79;43.96;99771.06;2019300;80;20179;-70
2021/03/25 14:58:38;;;;;;;4.56;2.04;;;;;;;14.63;44.07;99768.72;2020331;80;20202;-71